Hovedside
METAR-TAF:

METAR-TAF

Lufthavner :

Ronneby, Sverige

Ronneby lufthavn

breddegrad: 56-16N, lengdegrad: 015-17E, høyde over havet: 58 m

Gjeldene værobservasjon

Denne rapporten ble laget for 24 minutter siden, klokken 04:20 UTC
Vind 5 kt fra Sørvest, skiftende mellom Sør og Vest
Temperatur 1°C
Luftfuktighet 80%
Trykk 999 hPa
Sikt 10 km eller mer
ingen skyer under 1500 m og ingen bygeskyer

METAR: ESDF 250420Z 22005KT 190V260 CAVOK 01/M02 Q0999

Tid: 06:44 (04:44 UTC)

Varsel

Denne rapporten ble laget for 11 timer og 14 minutter siden, klokken 17:30 UTC
Varsel gyldig fra 24. klokken 18 UTC til 24. klokken 22 UTC
Vind 10 kt fra Vest
Sikt 10 km eller mer
ingen skyer under 1500 m og ingen bygeskyer

TAF: ESDF 241730Z 2418/2422 26010KT CAVOK

Værobservasjoner og værvarsel for over 4000 flyplasser (METAR- og TAF-rapporter).

Tilgjengelige stasjoner er representert av de røde og gule prikkene på kartet.

Hold musepekeren over prikken for å se navnet på stasjonen.

Klikk så for å se værobservasjoner og -varsler.

For å forandre kartet kan du klikke på den grønne knappen med svart kryss for å zoome inn, på den grønne knappen med strek for å zoome ut, eller på de grønne pilene for å se tilstøtende kart.


METAR-TAF: